Share

Belem, Brazil

Val De Caes (SBBE) Elev 52 ft | 1.38 °S, 48.48 °W | Change Station

Current weather conditions updated 30 minutes ago

Mostly Cloudy
Mostly Cloudy
86 °F
Feels Like 95 °F
N
12
Wind Variable Wind from ENE
Sunrise 6:10 AM
Sunset 6:14 PM
Moon Waning Gibbous

Today is forecast to be nearly the same temperature as yesterday. Thunderstorms.

Pressure 29.86 in
Visibility 6.2 miles
Clouds Mostly Cloudy 3000 ft
Heat Index 95 °F
Dew Point 75 °F
Humidity 70%
Rainfall 0.00 in
Snow Depth Not available.
UV 8 out of 16
Pollen Not available.
Air Quality Not available.
Flu Activity Not available.
METAR SBBE 211600Z 07010KT 9999 BKN030 30/24 Q1011

More Conditions Fewer Conditions

Pressure 29.86 in
Visibility 6.2 miles
Clouds Mostly Cloudy 3000 ft
Heat Index 95 °F
Dew Point 75 °F
Humidity 70%
Rainfall 0.00 in
Snow Depth Not available.
UV 8 out of 16
Pollen Not available.
Air Quality Not available.
Flu Activity Not available.
METAR SBBE 211600Z 07010KT 9999 BKN030 30/24 Q1011

More Conditions Fewer Conditions

10-Day Weather Forecast

Almanac

Astronomy

Apr. 21, 2014 Rise Set
Actual Time 6:10 AM BRT 6:14 PM BRT
Civil Twilight 5:49 AM BRT 6:35 PM BRT
Nautical Twilight 5:24 AM BRT 7:00 PM BRT
Astronomical Twilight 5:00 AM BRT 7:24 PM BRT
Moon No Moon Rise 11:48 AM BRT
Length of Visible Light 12h 46m
Length of Day
12h 04m
Tomorrow will be 0m 4s shorter.
Waning Gibbous, 57% of the Moon is Illuminated
Today
Waning Gibbous
Apr 22
Last Quarter
Apr 29
New
May 6
First Quarter
May 14
Full

Today's Extremes

Country Highs Country Lows

Community

  • Glass on White Lake
    Glass on White Lake
  • Bright Eyes
    Bright Eyes
  • Snowy Robin
    Snowy Robin
  • Spring Crocus
    Spring Crocus
  • Sun Pillar and Geese
    Sun Pillar and Geese

WunderPhotos

Upload Photos

1,703,682 photos uploaded!

WunderBlogs® & News

Nearby

Snow Depth

Not available.

Coastal Water Temperatures

Place Temperature
No Stations Reporting

Earthquake Activity

City Distance Mag. Time & Date
No recent earthquake activity has been reported nearby.
Minimum magnitude displayed is 2.5.

Nearby Weather Stations

There are no personal weather stations in this area.

What do you think?

We're not finished. Please let us know what you like, what you don't like, and what you are still missing.